Time;durP1;ratioP1;P1;durP2;ratioP2;P2;SDS_P1;SDS_P2;PMS_P1;PMS_P2;Temp;Humidity;BMP_temperature;BMP_pressure;BME280_temperature;BME280_humidity;BME280_pressure;Samples;Min_cycle;Max_cycle;Signal;HPM_P1;HPM_P2
2022/09/09 00:00:49;;;;;;;;;;;;;;;20.81;68.41;100083.31;5370289;32;33039;-71
2022/09/09 00:03:59;;;;;;;;;;;;;;;20.79;69.36;100085.25;5374683;32;45569;-76
2022/09/09 00:07:14;;;;;;;;;;;;;;;20.15;70.28;100078.19;5376406;32;33741;-77
2022/09/09 00:10:18;;;;;;;;;;;;;;;20.74;66.79;100076.81;5355407;32;33475;-71
2022/09/09 00:13:30;;;;;;;;;;;;;;;19.51;72.86;100069.28;5389597;32;45115;-76
2022/09/09 00:16:32;;;;;;;;;;;;;;;19.63;71.38;100060.31;5372717;32;34182;-76
2022/09/09 00:19:35;;;;;;;;;;;;;;;20.74;68.47;100061.63;5379924;32;33485;-75
2022/09/09 00:22:37;;;;;;;;;;;;;;;19.91;70.54;100083.75;5371555;32;33341;-72
2022/09/09 00:25:57;;;;;;;;;;;;;;;20.20;70.22;100085.81;5360643;32;36241;-71
2022/09/09 00:29:25;;;;;;;;;;;;;;;19.80;72.75;100094.47;5387570;32;33904;-77
2022/09/09 00:32:28;;;;;;;;;;;;;;;20.80;69.16;100081.59;5366854;32;34860;-72
2022/09/09 00:35:30;;;;;;;;;;;;;;;20.04;70.95;100088.09;5388498;32;31891;-71
2022/09/09 00:38:33;;;;;;;;;;;;;;;20.84;68.56;100072.34;5374563;32;33361;-71
2022/09/09 00:41:43;;;;;;;;;;;;;;;20.75;69.45;100073.16;5378421;32;33579;-71
2022/09/09 00:45:04;;;;;;;;;;;;;;;20.87;67.60;100088.13;5387228;32;33373;-71
2022/09/09 00:48:07;;;;;;;;;;;;;;;19.97;71.61;100093.94;5374237;32;33802;-71
2022/09/09 00:51:30;;;;;;;;;;;;;;;19.85;72.47;100092.28;5389703;32;32974;-72
2022/09/09 00:54:33;;;;;;;;;;;;;;;20.52;69.68;100086.62;5328407;32;32992;-70
2022/09/09 00:57:36;;;;;;;;;;;;;;;20.19;70.77;100098.31;5358348;32;33482;-78
2022/09/09 01:00:41;;;;;;;;;;;;;;;19.97;72.11;100091.25;5373076;32;33911;-76
2022/09/09 01:03:53;;;;;;;;;;;;;;;19.67;73.42;100091.09;5377891;32;33637;-76
2022/09/09 01:06:56;;;;;;;;;;;;;;;18.99;77.29;100095.63;5393940;32;45443;-75
2022/09/09 01:09:59;;;;;;;;;;;;;;;19.91;73.79;100114.94;5355752;32;34785;-71
2022/09/09 01:13:02;;;;;;;;;;;;;;;19.53;73.05;100113.53;5375058;32;33158;-76
2022/09/09 01:16:07;;;;;;;;;;;;;;;19.65;73.34;100117.06;5373671;32;34729;-76
2022/09/09 01:19:10;;;;;;;;;;;;;;;20.46;71.05;100113.84;5354471;32;33026;-78
2022/09/09 01:22:12;;;;;;;;;;;;;;;20.08;71.77;100114.34;5395799;32;33434;-75
2022/09/09 01:25:29;;;;;;;;;;;;;;;20.08;72.15;100111.69;5367654;32;32703;-77
2022/09/09 01:28:31;;;;;;;;;;;;;;;19.80;73.59;100110.47;5389122;32;33716;-76
2022/09/09 01:31:38;;;;;;;;;;;;;;;20.47;70.23;100115.53;5377349;32;33801;-73
2022/09/09 01:34:39;;;;;;;;;;;;;;;20.41;70.63;100121.34;5355000;32;33887;-71
2022/09/09 01:37:41;;;;;;;;;;;;;;;19.83;73.57;100128.87;5393307;32;34185;-71
2022/09/09 01:40:43;;;;;;;;;;;;;;;19.87;73.61;100121.47;5368840;32;33349;-71
2022/09/09 01:43:45;;;;;;;;;;;;;;;20.08;72.15;100127.69;5373429;32;33019;-77
2022/09/09 01:46:47;;;;;;;;;;;;;;;20.00;73.10;100115.00;5375601;32;43707;-76
2022/09/09 01:49:49;;;;;;;;;;;;;;;19.75;73.09;100109.97;5380599;32;33860;-78
2022/09/09 01:52:52;;;;;;;;;;;;;;;19.81;73.34;100116.62;5373157;32;33971;-72
2022/09/09 01:56:02;;;;;;;;;;;;;;;19.78;72.45;100125.75;5357219;32;33238;-71
2022/09/09 01:59:16;;;;;;;;;;;;;;;20.27;70.98;100127.00;5384258;32;33966;-71
2022/09/09 02:02:19;;;;;;;;;;;;;;;19.60;74.05;100128.09;5373430;32;45634;-76
2022/09/09 02:05:21;;;;;;;;;;;;;;;20.12;72.45;100128.31;5371505;32;33750;-71
2022/09/09 02:08:23;;;;;;;;;;;;;;;20.69;68.21;100125.25;5368215;32;33716;-77
2022/09/09 02:11:26;;;;;;;;;;;;;;;20.00;72.48;100119.50;5382735;32;34101;-74
2022/09/09 02:14:30;;;;;;;;;;;;;;;20.18;71.20;100119.78;5359273;32;32363;-71
2022/09/09 02:17:33;;;;;;;;;;;;;;;20.17;70.10;100128.78;5358523;32;33691;-74
2022/09/09 02:20:38;;;;;;;;;;;;;;;20.31;69.91;100140.97;5385452;32;33007;-76
2022/09/09 02:23:41;;;;;;;;;;;;;;;20.61;69.54;100138.41;5368666;32;33886;-77
2022/09/09 02:26:43;;;;;;;;;;;;;;;20.13;71.97;100135.31;5392029;32;33532;-75
2022/09/09 02:29:47;;;;;;;;;;;;;;;20.32;70.78;100135.50;5364323;32;33882;-71
2022/09/09 02:32:48;;;;;;;;;;;;;;;19.57;74.37;100138.09;5378460;32;44381;-76
2022/09/09 02:35:51;;;;;;;;;;;;;;;19.68;72.96;100133.62;5383823;32;34157;-77
2022/09/09 02:38:53;;;;;;;;;;;;;;;19.78;72.59;100133.75;5367024;32;33612;-72
2022/09/09 02:41:56;;;;;;;;;;;;;;;20.09;70.66;100133.88;5395573;32;34109;-72
2022/09/09 02:44:58;;;;;;;;;;;;;;;19.89;72.11;100136.38;5365960;32;33621;-70
2022/09/09 02:48:03;;;;;;;;;;;;;;;20.11;70.23;100137.28;5393609;32;33783;-72
2022/09/09 02:51:10;;;;;;;;;;;;;;;19.54;73.24;100141.03;5374332;32;33514;-71
2022/09/09 02:54:21;;;;;;;;;;;;;;;19.93;72.14;100134.31;5350305;32;32936;-71
2022/09/09 02:57:23;;;;;;;;;;;;;;;19.29;74.42;100134.12;5358596;32;44632;-75
2022/09/09 03:00:26;;;;;;;;;;;;;;;19.01;75.63;100138.13;5378334;32;33737;-75
2022/09/09 03:03:28;;;;;;;;;;;;;;;18.88;75.93;100140.91;5390806;32;34185;-77
2022/09/09 03:06:30;;;;;;;;;;;;;;;18.87;74.42;100139.19;5374238;32;33972;-71
2022/09/09 03:09:34;;;;;;;;;;;;;;;19.23;73.66;100139.94;5381782;32;34340;-72
2022/09/09 03:12:36;;;;;;;;;;;;;;;19.71;71.45;100141.41;5367029;32;34115;-76
2022/09/09 03:15:38;;;;;;;;;;;;;;;18.87;74.77;100153.38;5355151;32;33268;-71
2022/09/09 03:18:40;;;;;;;;;;;;;;;19.48;73.54;100153.03;5381268;32;33590;-71
2022/09/09 03:21:41;;;;;;;;;;;;;;;19.95;70.45;100159.88;5375088;32;33088;-71
2022/09/09 03:24:43;;;;;;;;;;;;;;;19.80;71.12;100163.78;5369913;32;33491;-74
2022/09/09 03:27:45;;;;;;;;;;;;;;;20.27;68.47;100159.03;5377509;32;34078;-72
2022/09/09 03:30:48;;;;;;;;;;;;;;;19.99;70.28;100160.47;5385375;32;36637;-77
2022/09/09 03:33:50;;;;;;;;;;;;;;;20.37;69.26;100159.97;5358531;32;33944;-71
2022/09/09 03:36:52;;;;;;;;;;;;;;;20.57;68.11;100168.16;5377543;32;34086;-71
2022/09/09 03:39:57;;;;;;;;;;;;;;;20.08;68.81;100165.03;5382216;32;33540;-73
2022/09/09 03:42:59;;;;;;;;;;;;;;;19.51;71.96;100154.59;5377207;32;33787;-71
2022/09/09 03:46:01;;;;;;;;;;;;;;;19.43;73.83;100158.72;5388578;32;33199;-71
2022/09/09 03:49:03;;;;;;;;;;;;;;;19.44;73.70;100160.41;5375019;32;33057;-76
2022/09/09 03:52:05;;;;;;;;;;;;;;;19.03;75.85;100154.84;5389612;32;33773;-71
2022/09/09 03:55:07;;;;;;;;;;;;;;;20.11;71.10;100155.97;5354483;32;35632;-75
2022/09/09 03:58:10;;;;;;;;;;;;;;;20.48;68.30;100165.31;5353857;32;33506;-71
2022/09/09 04:01:13;;;;;;;;;;;;;;;20.87;66.82;100173.59;5391451;32;33491;-72
2022/09/09 04:04:15;;;;;;;;;;;;;;;20.94;66.24;100168.56;5376601;32;33710;-71
2022/09/09 04:07:17;;;;;;;;;;;;;;;21.03;65.64;100163.25;5393767;32;36226;-76
2022/09/09 04:10:19;;;;;;;;;;;;;;;20.91;65.80;100156.31;5370734;32;33427;-77
2022/09/09 04:13:21;;;;;;;;;;;;;;;20.32;67.79;100164.84;5381890;32;33723;-77
2022/09/09 04:16:23;;;;;;;;;;;;;;;20.54;66.90;100161.25;5382182;32;33944;-76
2022/09/09 04:19:25;;;;;;;;;;;;;;;20.28;67.86;100166.91;5377065;32;33057;-76
2022/09/09 04:22:27;;;;;;;;;;;;;;;20.42;67.17;100168.47;5381140;32;33454;-76
2022/09/09 04:25:29;;;;;;;;;;;;;;;20.61;66.55;100162.44;5372388;32;33679;-72
2022/09/09 04:28:31;;;;;;;;;;;;;;;20.54;66.87;100163.91;5387757;32;33548;-76
2022/09/09 04:31:33;;;;;;;;;;;;;;;19.92;68.38;100169.97;5378143;32;34016;-76
2022/09/09 04:34:35;;;;;;;;;;;;;;;19.93;68.82;100164.50;5360889;32;34511;-72
2022/09/09 04:37:37;;;;;;;;;;;;;;;19.21;71.16;100158.72;5389142;32;35252;-74
2022/09/09 04:40:42;;;;;;;;;;;;;;;19.64;69.92;100160.66;5370481;32;32982;-76
2022/09/09 04:43:44;;;;;;;;;;;;;;;19.68;68.92;100162.13;5385717;32;33794;-76
2022/09/09 04:46:46;;;;;;;;;;;;;;;19.54;69.85;100163.19;5377545;32;32913;-72
2022/09/09 04:49:48;;;;;;;;;;;;;;;20.00;68.06;100160.34;5379799;32;43481;-72
2022/09/09 04:52:50;;;;;;;;;;;;;;;20.41;66.42;100150.72;5372109;32;33447;-77
2022/09/09 04:56:05;;;;;;;;;;;;;;;20.45;66.39;100149.53;5348476;32;34084;-71
2022/09/09 04:59:07;;;;;;;;;;;;;;;20.54;65.97;100154.12;5382131;32;33529;-73
2022/09/09 05:02:09;;;;;;;;;;;;;;;20.09;67.68;100153.41;5378148;32;33283;-75
2022/09/09 05:05:11;;;;;;;;;;;;;;;19.73;68.65;100160.78;5394120;32;33484;-70
2022/09/09 05:08:12;;;;;;;;;;;;;;;19.48;70.04;100169.00;5370187;32;33241;-77
2022/09/09 05:11:18;;;;;;;;;;;;;;;19.49;69.56;100168.88;5390208;32;32915;-71
2022/09/09 05:14:20;;;;;;;;;;;;;;;18.97;72.17;100176.63;5364167;32;45990;-73
2022/09/09 05:17:21;;;;;;;;;;;;;;;19.89;69.04;100181.69;5374576;32;33184;-71
2022/09/09 05:20:23;;;;;;;;;;;;;;;19.57;70.17;100167.41;5386034;32;33796;-77
2022/09/09 05:23:25;;;;;;;;;;;;;;;19.52;70.20;100167.81;5369131;32;33759;-72
2022/09/09 05:26:29;;;;;;;;;;;;;;;19.30;71.15;100171.31;5391970;32;33044;-71
2022/09/09 05:29:33;;;;;;;;;;;;;;;19.70;70.21;100166.34;5368978;32;33732;-77
2022/09/09 05:32:35;;;;;;;;;;;;;;;20.35;66.86;100167.28;5393762;32;33901;-72
2022/09/09 05:35:38;;;;;;;;;;;;;;;19.89;68.59;100181.69;5378016;32;35901;-77
2022/09/09 05:38:40;;;;;;;;;;;;;;;20.15;68.50;100182.25;5375467;32;33226;-75
2022/09/09 05:41:42;;;;;;;;;;;;;;;20.62;65.35;100182.00;5368493;32;33447;-74
2022/09/09 05:44:44;;;;;;;;;;;;;;;20.69;65.11;100178.66;5351836;32;33646;-73
2022/09/09 05:47:52;;;;;;;;;;;;;;;20.48;65.52;100188.47;5366970;32;33417;-75
2022/09/09 05:50:54;;;;;;;;;;;;;;;20.15;67.18;100184.91;5349585;32;44563;-77
2022/09/09 05:53:58;;;;;;;;;;;;;;;21.03;63.77;100170.44;5376853;32;35822;-76
2022/09/09 05:57:00;;;;;;;;;;;;;;;20.55;65.76;100170.97;5346594;32;33870;-74
2022/09/09 06:00:02;;;;;;;;;;;;;;;21.68;61.91;100176.37;5364629;32;32970;-75
2022/09/09 06:03:04;;;;;;;;;;;;;;;21.94;60.33;100171.38;5375053;32;33926;-79
2022/09/09 06:06:07;;;;;;;;;;;;;;;22.06;58.86;100175.63;5360420;32;34408;-72
2022/09/09 06:09:10;;;;;;;;;;;;;;;21.90;59.71;100173.50;5368337;32;32854;-79
2022/09/09 06:12:12;;;;;;;;;;;;;;;22.03;59.42;100182.09;5354749;32;33663;-73
2022/09/09 06:15:14;;;;;;;;;;;;;;;22.63;57.10;100182.03;5366769;32;32738;-80
2022/09/09 06:18:18;;;;;;;;;;;;;;;24.64;51.05;100174.19;5354676;32;33828;-66
2022/09/09 06:21:40;;;;;;;;;;;;;;;24.29;52.27;100181.25;5370923;32;44424;-68
2022/09/09 06:24:42;;;;;;;;;;;;;;;24.67;50.53;100181.97;5379545;32;33073;-71
2022/09/09 06:27:49;;;;;;;;;;;;;;;23.87;52.57;100178.28;5369253;32;33515;-72
2022/09/09 06:30:58;;;;;;;;;;;;;;;24.84;49.64;100181.91;5376974;32;45973;-74
2022/09/09 06:34:00;;;;;;;;;;;;;;;25.16;49.22;100185.00;5360169;32;33451;-73
2022/09/09 06:37:03;;;;;;;;;;;;;;;25.51;48.84;100175.97;5350580;32;33216;-75
2022/09/09 06:40:05;;;;;;;;;;;;;;;25.36;48.03;100183.78;5378106;32;33648;-73
2022/09/09 06:43:07;;;;;;;;;;;;;;;25.80;47.22;100178.28;5364586;32;33055;-73
2022/09/09 06:46:10;;;;;;;;;;;;;;;26.02;45.98;100171.44;5385694;32;34002;-76
2022/09/09 06:49:13;;;;;;;;;;;;;;;25.52;46.67;100172.25;5364916;32;32760;-82
2022/09/09 06:52:15;;;;;;;;;;;;;;;26.53;44.85;100177.59;5362536;32;32524;-79
2022/09/09 06:55:17;;;;;;;;;;;;;;;25.73;46.92;100175.41;5357572;32;32535;-86
2022/09/09 06:58:19;;;;;;;;;;;;;;;25.35;46.54;100169.47;5347388;32;45571;-81
2022/09/09 07:01:22;;;;;;;;;;;;;;;25.09;47.57;100176.72;5378863;32;32965;-80
2022/09/09 07:04:25;;;;;;;;;;;;;;;25.48;46.78;100184.34;5370432;32;33963;-80
2022/09/09 07:07:27;;;;;;;;;;;;;;;24.52;50.07;100197.75;5387350;32;34439;-72
2022/09/09 07:10:29;;;;;;;;;;;;;;;24.86;48.81;100195.22;5375457;32;32933;-75
2022/09/09 07:13:31;;;;;;;;;;;;;;;24.35;50.12;100201.31;5364432;32;34619;-72
2022/09/09 07:16:33;;;;;;;;;;;;;;;23.53;52.92;100203.00;5369162;32;36652;-71
2022/09/09 07:19:35;;;;;;;;;;;;;;;23.13;54.57;100206.78;5351554;32;32951;-72
2022/09/09 07:22:37;;;;;;;;;;;;;;;22.67;57.10;100196.84;5379537;32;34142;-81
2022/09/09 07:25:45;;;;;;;;;;;;;;;23.57;54.81;100193.66;5361459;32;33483;-79
2022/09/09 07:28:47;;;;;;;;;;;;;;;24.80;50.56;100206.59;5367002;32;33983;-77
2022/09/09 07:31:49;;;;;;;;;;;;;;;25.43;48.65;100195.56;5369170;32;44567;-74
2022/09/09 07:34:51;;;;;;;;;;;;;;;26.44;45.76;100201.00;5371259;32;32935;-74
2022/09/09 07:37:53;;;;;;;;;;;;;;;28.52;40.84;100190.97;5364224;32;33414;-80
2022/09/09 07:41:03;;;;;;;;;;;;;;;29.04;39.30;100209.13;5357952;32;33673;-72
2022/09/09 07:44:06;;;;;;;;;;;;;;;26.77;44.31;100217.19;5384482;32;34060;-74
2022/09/09 07:47:08;;;;;;;;;;;;;;;27.55;43.00;100206.63;5359718;32;34180;-83
2022/09/09 07:50:11;;;;;;;;;;;;;;;27.57;42.52;100203.78;5380871;32;33772;-70
2022/09/09 07:53:13;;;;;;;;;;;;;;;30.89;35.85;100195.19;5359274;32;32769;-72
2022/09/09 07:56:23;;;;;;;;;;;;;;;30.70;34.97;100207.53;5335593;32;32878;-87
2022/09/09 07:59:25;;;;;;;;;;;;;;;29.79;36.33;100206.28;5384808;32;43760;-76
2022/09/09 08:02:29;;;;;;;;;;;;;;;28.92;37.10;100210.59;5372157;32;33033;-84
2022/09/09 08:05:31;;;;;;;;;;;;;;;29.99;36.83;100201.09;5386323;32;34358;-69
2022/09/09 08:08:33;;;;;;;;;;;;;;;30.81;34.33;100203.47;5350556;32;33674;-70
2022/09/09 08:11:36;;;;;;;;;;;;;;;33.50;29.69;100199.34;5359118;32;33839;-69
2022/09/09 08:14:40;;;;;;;;;;;;;;;32.54;30.10;100197.06;5372155;32;34288;-80
2022/09/09 08:17:42;;;;;;;;;;;;;;;28.66;38.31;100201.00;5367130;32;33068;-81
2022/09/09 08:20:44;;;;;;;;;;;;;;;31.66;33.00;100196.13;5383133;32;33068;-75
2022/09/09 08:23:47;;;;;;;;;;;;;;;32.75;30.92;100191.44;5367960;32;34195;-72
2022/09/09 08:26:49;;;;;;;;;;;;;;;31.99;31.79;100193.56;5385907;32;44557;-71
2022/09/09 08:29:51;;;;;;;;;;;;;;;31.22;33.62;100203.56;5372497;32;32981;-84
2022/09/09 08:32:53;;;;;;;;;;;;;;;31.84;32.87;100195.59;5384836;32;32946;-89
2022/09/09 08:35:55;;;;;;;;;;;;;;;32.32;31.77;100191.75;5389178;32;34205;-86
2022/09/09 08:38:58;;;;;;;;;;;;;;;31.21;32.93;100193.75;5373807;32;32150;-80
2022/09/09 08:42:04;;;;;;;;;;;;;;;32.11;31.78;100183.78;5386678;32;33144;-79
2022/09/09 08:45:12;;;;;;;;;;;;;;;32.32;31.18;100185.50;5369892;32;33275;-80
2022/09/09 08:48:29;;;;;;;;;;;;;;;32.14;30.64;100196.09;5386863;32;32921;-85
2022/09/09 08:51:33;;;;;;;;;;;;;;;31.98;30.68;100200.03;5374684;32;33202;-73
2022/09/09 08:54:36;;;;;;;;;;;;;;;32.20;30.25;100195.28;5362963;32;32950;-76
2022/09/09 08:57:54;;;;;;;;;;;;;;;31.32;32.32;100197.81;5370981;32;44371;-78
2022/09/09 09:01:08;;;;;;;;;;;;;;;32.99;30.42;100200.06;5350527;32;35727;-70
2022/09/09 09:04:31;;;;;;;;;;;;;;;33.93;28.44;100194.16;5376207;32;34008;-70
2022/09/09 09:07:43;;;;;;;;;;;;;;;34.05;28.33;100186.97;5362508;32;34510;-69
2022/09/09 09:10:51;;;;;;;;;;;;;;;34.53;27.74;100182.94;5362811;32;32859;-78
2022/09/09 09:13:55;;;;;;;;;;;;;;;33.84;28.22;100185.38;5362941;32;793398;-70
2022/09/09 09:16:58;;;;;;;;;;;;;;;33.70;28.11;100183.78;5360283;32;33280;-74
2022/09/09 09:20:00;;;;;;;;;;;;;;;34.37;27.44;100176.94;5368979;32;33164;-83
2022/09/09 09:23:02;;;;;;;;;;;;;;;33.66;28.21;100190.69;5362596;32;34098;-71
2022/09/09 09:26:08;;;;;;;;;;;;;;;32.56;29.63;100181.38;5380408;32;33700;-84
2022/09/09 09:29:11;;;;;;;;;;;;;;;32.47;30.25;100186.19;5375101;32;33057;-73
2022/09/09 09:32:14;;;;;;;;;;;;;;;32.78;29.23;100174.69;5371553;32;33483;-73
2022/09/09 09:35:16;;;;;;;;;;;;;;;32.80;29.79;100160.88;5370738;32;33300;-73
2022/09/09 09:38:19;;;;;;;;;;;;;;;36.24;24.09;100157.53;5374443;32;44898;-73
2022/09/09 09:41:42;;;;;;;;;;;;;;;36.18;24.30;100153.00;5360365;32;34843;-74
2022/09/09 09:44:44;;;;;;;;;;;;;;;33.86;27.24;100153.28;5374880;32;33024;-86
2022/09/09 09:47:46;;;;;;;;;;;;;;;33.68;27.49;100148.56;5370297;32;33067;-67
2022/09/09 09:50:53;;;;;;;;;;;;;;;35.13;25.21;100151.34;5369957;32;43695;-72
2022/09/09 09:54:05;;;;;;;;;;;;;;;33.46;28.01;100165.41;5365590;32;34294;-72
2022/09/09 09:57:14;;;;;;;;;;;;;;;33.38;28.04;100161.84;5362783;32;32336;-72
2022/09/09 10:00:20;;;;;;;;;;;;;;;32.41;29.58;100167.16;5366235;32;32875;-74
2022/09/09 10:03:29;;;;;;;;;;;;;;;32.86;28.31;100166.34;5369897;32;44477;-74
2022/09/09 10:06:35;;;;;;;;;;;;;;;34.72;25.73;100160.13;5376481;32;34063;-75
2022/09/09 10:09:37;;;;;;;;;;;;;;;33.73;27.09;100156.06;5364983;32;33372;-76
2022/09/09 10:12:44;;;;;;;;;;;;;;;33.30;27.31;100162.09;5368514;32;34654;-72
2022/09/09 10:15:55;;;;;;;;;;;;;;;35.18;25.59;100156.13;5370472;32;32979;-94
2022/09/09 10:19:01;;;;;;;;;;;;;;;32.40;28.72;100160.03;5363226;32;35457;-72
2022/09/09 10:22:29;;;;;;;;;;;;;;;32.88;28.23;100164.25;5360147;32;33381;-68
2022/09/09 10:25:57;;;;;;;;;;;;;;;32.72;29.03;100153.78;5367192;32;33543;-68
2022/09/09 10:29:18;;;;;;;;;;;;;;;31.54;30.15;100149.69;5370557;32;33583;-76
2022/09/09 10:32:38;;;;;;;;;;;;;;;31.37;31.08;100156.50;5369353;32;44544;-74
2022/09/09 10:35:46;;;;;;;;;;;;;;;30.42;31.56;100149.69;5369610;32;34073;-69
2022/09/09 10:39:05;;;;;;;;;;;;;;;29.28;32.65;100152.03;5384838;32;47870;-79
2022/09/09 10:42:09;;;;;;;;;;;;;;;29.74;32.27;100151.00;5349268;32;33818;-74
2022/09/09 10:45:21;;;;;;;;;;;;;;;31.49;29.21;100146.72;5379689;32;33033;-69
2022/09/09 10:48:26;;;;;;;;;;;;;;;28.99;33.85;100163.72;5370149;32;46105;-76
2022/09/09 10:51:34;;;;;;;;;;;;;;;29.73;32.78;100157.44;5364947;32;33130;-76
2022/09/09 10:54:54;;;;;;;;;;;;;;;29.09;32.50;100163.44;5374421;32;33927;-92
2022/09/09 10:57:57;;;;;;;;;;;;;;;29.90;30.87;100157.03;5356651;32;44419;-76
2022/09/09 11:01:02;;;;;;;;;;;;;;;28.49;33.70;100153.50;5380177;32;34304;-72
2022/09/09 11:04:13;;;;;;;;;;;;;;;28.94;32.05;100149.88;5362107;32;33168;-69
2022/09/09 11:07:25;;;;;;;;;;;;;;;28.11;34.19;100150.69;5369896;32;33747;-74
2022/09/09 11:10:40;;;;;;;;;;;;;;;28.07;34.87;100161.00;5369422;32;36125;-85
2022/09/09 11:13:42;;;;;;;;;;;;;;;28.33;34.33;100152.56;5380031;32;33086;-79
2022/09/09 11:16:51;;;;;;;;;;;;;;;28.56;33.80;100149.03;5384914;32;33023;-72
2022/09/09 11:19:53;;;;;;;;;;;;;;;28.76;33.13;100142.09;5370293;32;47388;-78
2022/09/09 11:22:54;;;;;;;;;;;;;;;29.16;32.57;100148.13;5364509;32;33153;-71
2022/09/09 11:25:57;;;;;;;;;;;;;;;30.23;31.31;100134.91;5379730;32;33650;-86
2022/09/09 11:28:59;;;;;;;;;;;;;;;30.65;30.37;100144.88;5362053;32;33741;-71
2022/09/09 11:32:05;;;;;;;;;;;;;;;31.90;28.26;100126.84;5376896;32;33462;-75
2022/09/09 11:35:08;;;;;;;;;;;;;;;33.47;26.43;100118.87;5369449;32;33914;-76
2022/09/09 11:38:21;;;;;;;;;;;;;;;34.63;24.65;100125.97;5379440;32;33993;-75
2022/09/09 11:41:24;;;;;;;;;;;;;;;34.36;24.10;100128.06;5354130;32;46129;-76
2022/09/09 11:44:28;;;;;;;;;;;;;;;33.81;24.88;100133.19;5347026;32;34029;-75
2022/09/09 11:47:31;;;;;;;;;;;;;;;29.62;30.96;100134.41;5369298;32;33702;-77
2022/09/09 11:50:36;;;;;;;;;;;;;;;29.98;30.93;100120.03;5376173;32;33925;-76
2022/09/09 11:53:51;;;;;;;;;;;;;;;29.57;32.40;100110.63;5385750;32;33381;-78
2022/09/09 11:56:53;;;;;;;;;;;;;;;29.41;31.92;100118.91;5349942;32;44666;-74
2022/09/09 11:59:56;;;;;;;;;;;;;;;30.18;31.20;100127.34;5381631;32;33944;-76
2022/09/09 12:02:58;;;;;;;;;;;;;;;30.65;30.68;100120.44;5391150;32;34081;-76
2022/09/09 12:06:08;;;;;;;;;;;;;;;29.89;31.63;100122.03;5371184;32;33519;-73
2022/09/09 12:09:29;;;;;;;;;;;;;;;29.59;31.43;100129.38;5390142;32;34031;-73
2022/09/09 12:12:35;;;;;;;;;;;;;;;32.08;27.38;100111.63;5380837;32;33302;-77
2022/09/09 12:15:53;;;;;;;;;;;;;;;35.30;23.05;100102.41;5364149;32;33507;-77
2022/09/09 12:19:02;;;;;;;;;;;;;;;34.22;24.67;100113.69;5387337;32;46835;-77
2022/09/09 12:22:07;;;;;;;;;;;;;;;32.00;27.63;100130.00;5374614;32;35622;-75
2022/09/09 12:25:09;;;;;;;;;;;;;;;31.04;29.07;100129.94;5375299;32;33609;-74
2022/09/09 12:28:12;;;;;;;;;;;;;;;32.63;27.50;100125.09;5374360;32;32979;-76
2022/09/09 12:31:23;;;;;;;;;;;;;;;34.25;24.52;100115.94;5385652;32;34187;-77
2022/09/09 12:34:28;;;;;;;;;;;;;;;33.17;26.25;100118.56;5360267;32;45067;-77
2022/09/09 12:37:45;;;;;;;;;;;;;;;30.81;29.08;100110.41;5381069;32;34257;-78
2022/09/09 12:40:54;;;;;;;;;;;;;;;31.50;27.86;100096.81;5373202;32;33420;-74
2022/09/09 12:44:06;;;;;;;;;;;;;;;29.30;31.31;100095.00;5353495;32;44438;-74
2022/09/09 12:47:09;;;;;;;;;;;;;;;29.31;31.30;100094.84;5400041;32;33005;-73
2022/09/09 12:50:31;;;;;;;;;;;;;;;29.48;31.03;100102.75;5376643;32;34471;-79
2022/09/09 12:53:34;;;;;;;;;;;;;;;30.77;29.28;100095.53;5367852;32;33573;-77
2022/09/09 12:56:36;;;;;;;;;;;;;;;30.12;30.70;100089.34;5372659;32;33679;-77
2022/09/09 12:59:39;;;;;;;;;;;;;;;29.63;30.89;100080.06;5370542;32;33349;-79
2022/09/09 13:03:07;;;;;;;;;;;;;;;29.71;31.04;100084.53;5395198;32;32905;-77
2022/09/09 13:06:14;;;;;;;;;;;;;;;30.89;29.41;100069.53;5352626;32;33006;-79
2022/09/09 13:09:15;;;;;;;;;;;;;;;33.40;25.69;100069.03;5358608;32;34128;-76
2022/09/09 13:12:19;;;;;;;;;;;;;;;35.30;22.80;100053.25;5394780;32;45365;-73
2022/09/09 13:15:23;;;;;;;;;;;;;;;34.14;23.86;100049.34;5377475;32;33745;-77
2022/09/09 13:18:27;;;;;;;;;;;;;;;31.75;27.33;100049.06;5374387;32;33082;-79
2022/09/09 13:21:38;;;;;;;;;;;;;;;31.76;27.76;100056.16;5372534;32;33696;-74
2022/09/09 13:24:42;;;;;;;;;;;;;;;29.27;31.54;100060.22;5362956;32;34916;-77
2022/09/09 13:27:54;;;;;;;;;;;;;;;29.96;30.40;100048.94;5375879;32;33743;-78
2022/09/09 13:30:59;;;;;;;;;;;;;;;29.72;30.98;100039.31;5369431;32;44614;-81
2022/09/09 13:34:12;;;;;;;;;;;;;;;28.59;32.10;100054.03;5375249;32;32850;-74
2022/09/09 13:37:25;;;;;;;;;;;;;;;29.96;30.84;100043.53;5374017;32;33731;-73
2022/09/09 13:40:27;;;;;;;;;;;;;;;30.16;30.14;100052.69;5380327;32;46925;-74
2022/09/09 13:43:42;;;;;;;;;;;;;;;29.56;31.02;100035.84;5382825;32;33757;-78
2022/09/09 13:46:44;;;;;;;;;;;;;;;29.20;31.77;100041.19;5366612;32;32898;-78
2022/09/09 13:49:46;;;;;;;;;;;;;;;29.34;31.33;100042.19;5371937;32;33003;-78
2022/09/09 13:52:51;;;;;;;;;;;;;;;28.98;31.61;100042.12;5354903;32;45216;-74
2022/09/09 13:55:53;;;;;;;;;;;;;;;29.22;30.97;100039.12;5369672;32;33349;-75
2022/09/09 13:58:55;;;;;;;;;;;;;;;29.67;29.98;100027.19;5366182;32;34354;-77
2022/09/09 14:01:57;;;;;;;;;;;;;;;29.06;30.43;100037.50;5382068;32;33647;-78
2022/09/09 14:04:59;;;;;;;;;;;;;;;30.68;28.34;100024.34;5384696;32;34182;-77
2022/09/09 14:08:03;;;;;;;;;;;;;;;30.44;28.06;100023.72;5369768;32;33013;-74
2022/09/09 14:11:05;;;;;;;;;;;;;;;30.89;27.33;100004.41;5391768;32;33022;-78
2022/09/09 14:14:07;;;;;;;;;;;;;;;29.99;28.56;100008.75;5367845;32;33186;-77
2022/09/09 14:17:09;;;;;;;;;;;;;;;30.20;27.76;100000.59;5395634;32;32848;-77
2022/09/09 14:20:11;;;;;;;;;;;;;;;28.35;30.26;100014.59;5368222;32;33655;-77
2022/09/09 14:23:14;;;;;;;;;;;;;;;28.16;30.89;100004.28;5374310;32;33920;-78
2022/09/09 14:26:15;;;;;;;;;;;;;;;28.82;29.51;100002.59;5393355;32;33724;-78
2022/09/09 14:29:17;;;;;;;;;;;;;;;29.59;28.15;100000.25;5355036;32;44753;-77
2022/09/09 14:32:20;;;;;;;;;;;;;;;29.07;28.98;99997.75;5396241;32;34183;-74
2022/09/09 14:35:23;;;;;;;;;;;;;;;29.65;28.08;100004.88;5376909;32;33393;-79
2022/09/09 14:38:25;;;;;;;;;;;;;;;28.79;29.53;100005.69;5390980;32;33488;-77
2022/09/09 14:41:29;;;;;;;;;;;;;;;27.82;31.32;100002.84;5380988;32;35073;-77
2022/09/09 14:44:31;;;;;;;;;;;;;;;29.30;28.80;99993.00;5372766;32;33063;-75
2022/09/09 14:47:33;;;;;;;;;;;;;;;28.38;30.02;99992.59;5396949;32;35796;-77
2022/09/09 14:50:39;;;;;;;;;;;;;;;28.23;30.86;100000.66;5367291;32;33625;-74
2022/09/09 14:53:41;;;;;;;;;;;;;;;28.39;30.46;99993.44;5386172;32;34322;-77
2022/09/09 14:56:43;;;;;;;;;;;;;;;28.48;29.94;99993.16;5335731;32;33593;-76
2022/09/09 14:59:45;;;;;;;;;;;;;;;28.73;29.83;100003.72;5387982;32;33605;-77
2022/09/09 15:02:48;;;;;;;;;;;;;;;28.81;30.07;99999.03;5380630;32;44581;-74
2022/09/09 15:05:51;;;;;;;;;;;;;;;28.76;30.39;100000.63;5374612;32;34071;-77
2022/09/09 15:08:53;;;;;;;;;;;;;;;28.35;30.74;99992.97;5388091;32;34382;-78
2022/09/09 15:11:55;;;;;;;;;;;;;;;29.30;30.77;99992.16;5383416;32;34424;-77
2022/09/09 15:14:57;;;;;;;;;;;;;;;29.70;27.86;99992.66;5389432;32;33954;-77
2022/09/09 15:17:59;;;;;;;;;;;;;;;29.62;28.50;100002.53;5375793;32;34595;-77
2022/09/09 15:21:02;;;;;;;;;;;;;;;29.55;28.53;99998.09;5390209;32;33616;-73
2022/09/09 15:24:07;;;;;;;;;;;;;;;29.54;28.99;99997.25;5376393;32;34374;-78
2022/09/09 15:27:09;;;;;;;;;;;;;;;28.50;29.99;100001.91;5381344;32;33802;-74
2022/09/09 15:30:11;;;;;;;;;;;;;;;28.95;29.52;99996.53;5387415;32;32883;-74
2022/09/09 15:33:13;;;;;;;;;;;;;;;29.52;28.38;100002.03;5379164;32;32878;-78
2022/09/09 15:36:19;;;;;;;;;;;;;;;29.32;27.59;99993.69;5379830;32;33754;-77
2022/09/09 15:39:21;;;;;;;;;;;;;;;29.69;27.12;99991.81;5370386;32;45809;-74
2022/09/09 15:42:24;;;;;;;;;;;;;;;29.33;27.90;99998.06;5388787;32;33643;-77
2022/09/09 15:45:26;;;;;;;;;;;;;;;29.25;27.72;99994.63;5378526;32;33210;-74
2022/09/09 15:48:30;;;;;;;;;;;;;;;29.84;27.22;99994.44;5374105;32;33839;-74
2022/09/09 15:51:32;;;;;;;;;;;;;;;29.65;27.11;99993.22;5375290;32;33682;-73